Time;durP1;ratioP1;P1;durP2;ratioP2;P2;SDS_P1;SDS_P2;PMS_P1;PMS_P2;Temp;Humidity;BMP_temperature;BMP_pressure;BME280_temperature;BME280_humidity;BME280_pressure;Samples;Min_cycle;Max_cycle;Signal;HPM_P1;HPM_P2
2021/12/12 00:02:09;;;;;;;11.75;3.30;;;;;;;;;;4975522;28;20031;-21
2021/12/12 00:04:37;;;;;;;11.68;4.18;;;;;;;;;;4975416;28;20047;-22
2021/12/12 00:07:06;;;;;;;9.57;2.67;;;;;;;;;;4975523;28;20173;-22
2021/12/12 00:09:35;;;;;;;10.77;2.58;;;;;;;;;;4976029;28;20454;-23
2021/12/12 00:12:04;;;;;;;9.50;2.72;;;;;;;;;;4975675;28;20030;-21
2021/12/12 00:14:32;;;;;;;11.68;3.38;;;;;;;;;;4958500;28;20481;-22
2021/12/12 00:16:59;;;;;;;7.97;2.35;;;;;;;;;;4975481;28;20466;-22
2021/12/12 00:19:26;;;;;;;11.77;2.95;;;;;;;;;;4975395;28;20110;-23
2021/12/12 00:21:55;;;;;;;12.48;2.05;;;;;;;;;;4975580;28;20443;-23
2021/12/12 00:24:21;;;;;;;10.52;2.38;;;;;;;;;;4975633;28;20027;-22
2021/12/12 00:26:49;;;;;;;8.77;2.47;;;;;;;;;;4975636;28;20362;-22
2021/12/12 00:29:16;;;;;;;12.82;2.70;;;;;;;;;;4975361;28;20455;-22
2021/12/12 00:31:43;;;;;;;11.02;3.13;;;;;;;;;;4976114;28;20027;-22
2021/12/12 00:34:09;;;;;;;9.30;2.50;;;;;;;;;;4975326;28;20105;-22
2021/12/12 00:36:38;;;;;;;6.03;2.03;;;;;;;;;;4975581;28;20077;-22
2021/12/12 00:39:17;;;;;;;10.88;2.60;;;;;;;;;;4975442;28;20110;-22
2021/12/12 00:41:53;;;;;;;10.85;2.78;;;;;;;;;;4976064;28;20110;-22
2021/12/12 00:44:19;;;;;;;13.23;4.15;;;;;;;;;;4979414;28;20377;-21
2021/12/12 00:46:45;;;;;;;7.75;2.60;;;;;;;;;;4979349;28;20027;-22
2021/12/12 00:49:12;;;;;;;8.50;2.55;;;;;;;;;;4979257;28;20093;-23
2021/12/12 00:51:39;;;;;;;12.18;2.80;;;;;;;;;;4978991;28;20042;-22
2021/12/12 00:54:06;;;;;;;13.10;2.38;;;;;;;;;;4979153;28;20034;-23
2021/12/12 00:56:32;;;;;;;10.80;3.08;;;;;;;;;;4978940;28;20362;-22
2021/12/12 00:58:59;;;;;;;18.15;3.97;;;;;;;;;;4978821;28;20103;-22
2021/12/12 01:01:28;;;;;;;7.55;2.40;;;;;;;;;;4979030;28;20035;-22
2021/12/12 01:04:01;;;;;;;10.30;3.13;;;;;;;;;;4978458;28;20047;-22
2021/12/12 01:06:27;;;;;;;6.18;2.58;;;;;;;;;;4978989;28;20019;-21
2021/12/12 01:08:55;;;;;;;12.55;3.38;;;;;;;;;;4978742;28;20034;-25
2021/12/12 01:11:25;;;;;;;7.47;2.60;;;;;;;;;;4979184;28;20442;-22
2021/12/12 01:13:51;;;;;;;7.65;2.53;;;;;;;;;;4978544;28;20121;-22
2021/12/12 01:16:25;;;;;;;9.02;2.40;;;;;;;;;;4978552;28;20462;-22
2021/12/12 01:18:56;;;;;;;7.25;2.25;;;;;;;;;;4978815;28;20041;-23
2021/12/12 01:21:34;;;;;;;13.95;4.32;;;;;;;;;;4978800;28;20030;-22
2021/12/12 01:24:11;;;;;;;9.40;2.58;;;;;;;;;;4945486;28;20053;-21
2021/12/12 01:26:39;;;;;;;6.82;2.60;;;;;;;;;;4978713;28;20027;-22
2021/12/12 01:29:06;;;;;;;10.70;3.70;;;;;;;;;;4978847;28;20034;-22
2021/12/12 01:31:33;;;;;;;9.02;2.38;;;;;;;;;;4978536;28;20065;-22
2021/12/12 01:34:09;;;;;;;10.82;2.67;;;;;;;;;;4978237;28;20442;-24
2021/12/12 01:36:51;;;;;;;9.27;2.50;;;;;;;;;;4978542;28;20030;-22
2021/12/12 01:39:18;;;;;;;7.43;3.45;;;;;;;;;;4978402;28;20031;-24
2021/12/12 01:41:53;;;;;;;8.23;2.03;;;;;;;;;;4978026;28;20090;-22
2021/12/12 01:44:23;;;;;;;7.05;2.33;;;;;;;;;;4978065;28;20033;-22
2021/12/12 01:46:57;;;;;;;6.85;2.03;;;;;;;;;;4977980;28;20027;-23
2021/12/12 01:49:25;;;;;;;9.80;2.97;;;;;;;;;;4977942;28;20027;-22
2021/12/12 01:51:51;;;;;;;8.35;2.40;;;;;;;;;;4977866;28;20035;-21
2021/12/12 01:54:21;;;;;;;10.30;2.17;;;;;;;;;;4977543;28;20043;-22
2021/12/12 01:56:53;;;;;;;4.72;2.25;;;;;;;;;;4977855;28;20065;-22
2021/12/12 01:59:22;;;;;;;16.15;3.45;;;;;;;;;;4978059;28;20034;-22
2021/12/12 02:01:50;;;;;;;7.32;1.98;;;;;;;;;;4977637;28;20050;-21
2021/12/12 02:04:19;;;;;;;14.10;3.20;;;;;;;;;;4977532;28;20059;-21
2021/12/12 02:06:46;;;;;;;8.00;2.97;;;;;;;;;;4977623;28;20447;-24
2021/12/12 02:09:14;;;;;;;10.25;2.50;;;;;;;;;;4977873;28;20031;-23
2021/12/12 02:11:42;;;;;;;7.93;2.60;;;;;;;;;;4977587;28;20031;-22
2021/12/12 02:14:11;;;;;;;5.35;2.10;;;;;;;;;;4960431;28;20030;-22
2021/12/12 02:16:48;;;;;;;7.05;2.20;;;;;;;;;;4977777;28;20115;-21
2021/12/12 02:19:15;;;;;;;7.85;2.38;;;;;;;;;;4977637;28;20421;-22
2021/12/12 02:35:30;;;;;;;5.15;2.47;;;;;;;;;;4977354;28;20509;-21
2021/12/12 02:37:58;;;;;;;7.68;2.55;;;;;;;;;;4977186;28;20026;-22
2021/12/12 02:40:27;;;;;;;6.55;2.42;;;;;;;;;;4977703;28;20027;-21
2021/12/12 02:42:54;;;;;;;5.80;2.55;;;;;;;;;;4960010;28;20413;-22
2021/12/12 02:45:22;;;;;;;14.85;2.75;;;;;;;;;;4960076;28;20064;-22
2021/12/12 02:47:56;;;;;;;5.63;2.38;;;;;;;;;;4977233;28;20096;-22
2021/12/12 02:50:24;;;;;;;7.53;1.80;;;;;;;;;;4977039;28;20102;-22
2021/12/12 02:52:52;;;;;;;8.00;2.65;;;;;;;;;;4960125;28;20050;-23
2021/12/12 02:55:21;;;;;;;4.55;2.95;;;;;;;;;;4976752;28;20031;-22
2021/12/12 02:57:48;;;;;;;9.43;2.75;;;;;;;;;;4976893;28;20099;-22
2021/12/12 03:00:17;;;;;;;7.43;2.78;;;;;;;;;;4977113;28;20033;-23
2021/12/12 03:02:46;;;;;;;7.93;2.60;;;;;;;;;;4976399;28;20035;-22
2021/12/12 03:05:14;;;;;;;5.32;2.28;;;;;;;;;;4975911;28;20085;-21
2021/12/12 03:07:40;;;;;;;6.25;2.28;;;;;;;;;;4976579;28;20030;-22
2021/12/12 03:10:09;;;;;;;6.70;1.80;;;;;;;;;;4976519;28;20030;-22
2021/12/12 03:12:36;;;;;;;8.90;2.28;;;;;;;;;;4976566;28;20031;-22
2021/12/12 03:15:14;;;;;;;8.68;2.13;;;;;;;;;;4976424;28;20134;-22
2021/12/12 03:17:40;;;;;;;7.78;2.47;;;;;;;;;;4976367;28;20027;-22
2021/12/12 03:20:10;;;;;;;4.55;2.03;;;;;;;;;;4976210;28;20027;-22
2021/12/12 03:22:36;;;;;;;7.82;2.58;;;;;;;;;;4976467;28;20422;-22
2021/12/12 03:25:03;;;;;;;8.63;2.67;;;;;;;;;;4976256;28;20035;-23
2021/12/12 03:27:29;;;;;;;12.35;2.13;;;;;;;;;;4976461;28;20034;-22
2021/12/12 03:29:55;;;;;;;8.82;2.15;;;;;;;;;;4976382;28;20033;-21
2021/12/12 03:32:23;;;;;;;4.53;1.90;;;;;;;;;;4976080;28;20106;-22
2021/12/12 03:34:54;;;;;;;6.15;2.90;;;;;;;;;;4976019;28;20061;-22
2021/12/12 03:37:22;;;;;;;8.60;2.25;;;;;;;;;;4976308;28;20428;-22
2021/12/12 03:39:49;;;;;;;6.07;1.85;;;;;;;;;;4976217;28;20030;-21
2021/12/12 03:42:18;;;;;;;4.97;3.08;;;;;;;;;;4976300;28;20065;-22
2021/12/12 03:44:45;;;;;;;6.82;2.90;;;;;;;;;;4976388;28;20351;-21
2021/12/12 03:47:16;;;;;;;5.55;2.90;;;;;;;;;;4975878;28;20034;-22
2021/12/12 03:49:42;;;;;;;;;;;;;;;;;;4976814;28;20103;-22
2021/12/12 03:52:10;;;;;;;8.05;1.67;;;;;;;;;;4975658;28;19965;-22
2021/12/12 03:54:37;;;;;;;6.45;2.17;;;;;;;;;;4976223;28;20453;-22
2021/12/12 03:57:04;;;;;;;6.15;2.30;;;;;;;;;;4975704;28;20027;-22
2021/12/12 03:59:30;;;;;;;8.55;2.03;;;;;;;;;;4975840;28;20026;-23
2021/12/12 04:01:56;;;;;;;4.80;2.20;;;;;;;;;;4975554;28;20019;-25
2021/12/12 04:04:28;;;;;;;7.93;2.13;;;;;;;;;;4975545;28;20454;-22
2021/12/12 04:06:55;;;;;;;5.68;2.10;;;;;;;;;;4976126;28;20041;-22
2021/12/12 04:09:22;;;;;;;9.68;2.55;;;;;;;;;;4976534;28;20050;-22
2021/12/12 04:11:52;;;;;;;7.78;1.90;;;;;;;;;;4975670;28;20062;-22
2021/12/12 04:14:18;;;;;;;7.32;2.10;;;;;;;;;;4975755;28;20066;-22
2021/12/12 04:16:46;;;;;;;3.80;1.85;;;;;;;;;;4975368;28;20077;-23
2021/12/12 04:19:13;;;;;;;6.32;2.13;;;;;;;;;;4975567;28;20068;-23
2021/12/12 04:21:40;;;;;;;4.10;2.17;;;;;;;;;;4975670;28;20332;-22
2021/12/12 04:24:08;;;;;;;5.20;2.10;;;;;;;;;;4976301;28;20121;-22
2021/12/12 04:26:36;;;;;;;4.47;1.83;;;;;;;;;;4975400;28;20031;-22
2021/12/12 04:29:05;;;;;;;7.45;1.73;;;;;;;;;;4958362;28;20370;-22
2021/12/12 04:31:31;;;;;;;7.25;2.20;;;;;;;;;;4975307;28;20034;-22
2021/12/12 04:33:59;;;;;;;7.72;2.00;;;;;;;;;;4975329;28;20320;-22
2021/12/12 04:36:29;;;;;;;3.90;1.90;;;;;;;;;;4975332;28;20034;-23
2021/12/12 04:39:00;;;;;;;4.72;1.83;;;;;;;;;;4976281;28;20026;-22
2021/12/12 04:41:26;;;;;;;8.93;2.37;;;;;;;;;;4975310;28;20059;-22
2021/12/12 04:43:52;;;;;;;9.77;3.55;;;;;;;;;;4975160;28;20034;-22
2021/12/12 04:46:24;;;;;;;8.85;2.22;;;;;;;;;;4975486;28;20026;-22
2021/12/12 04:51:40;;;;;;;11.02;2.92;;;;;;;;;;4975497;28;20042;-22
2021/12/12 04:54:25;;;;;;;5.60;1.88;;;;;;;;;;4958370;28;20113;-22
2021/12/12 04:57:01;;;;;;;5.18;1.92;;;;;;;;;;4975352;28;20336;-23
2021/12/12 04:59:33;;;;;;;8.25;2.30;;;;;;;;;;4975064;28;20089;-22
2021/12/12 05:02:32;;;;;;;4.70;1.65;;;;;;;;;;4958231;28;20045;-22
2021/12/12 05:05:05;;;;;;;4.95;2.22;;;;;;;;;;4922730;28;20133;-21
2021/12/12 05:07:31;;;;;;;6.95;1.70;;;;;;;;;;4975376;28;20030;-21
2021/12/12 05:10:17;;;;;;;4.47;1.58;;;;;;;;;;4975317;28;20070;-22
2021/12/12 05:12:49;;;;;;;2.90;1.38;;;;;;;;;;4975200;28;20042;-22
2021/12/12 05:15:15;;;;;;;;;;;;;;;;;;4975394;28;20035;-22
2021/12/12 05:17:43;;;;;;;6.93;2.38;;;;;;;;;;4974930;28;19929;-23
2021/12/12 05:20:13;;;;;;;6.10;2.33;;;;;;;;;;4974981;28;20023;-22
2021/12/12 05:22:42;;;;;;;4.05;1.40;;;;;;;;;;4974873;28;20034;-22
2021/12/12 05:25:10;;;;;;;6.25;2.33;;;;;;;;;;4974937;28;20034;-23
2021/12/12 05:27:38;;;;;;;6.65;2.58;;;;;;;;;;4975394;28;20110;-22
2021/12/12 05:30:13;;;;;;;4.47;2.15;;;;;;;;;;4978345;28;20023;-23
2021/12/12 05:32:39;;;;;;;6.25;1.95;;;;;;;;;;4945273;28;20057;-22
2021/12/12 05:35:09;;;;;;;3.45;1.65;;;;;;;;;;4978319;28;20031;-22
2021/12/12 05:37:35;;;;;;;5.93;2.80;;;;;;;;;;4978434;28;20350;-22
2021/12/12 05:40:05;;;;;;;4.75;1.90;;;;;;;;;;4978172;28;20458;-23
2021/12/12 05:42:32;;;;;;;8.73;2.10;;;;;;;;;;4978436;28;20027;-23
2021/12/12 05:45:00;;;;;;;5.55;2.10;;;;;;;;;;4961082;28;20474;-22
2021/12/12 05:47:26;;;;;;;2.60;2.08;;;;;;;;;;4978098;28;20055;-22
2021/12/12 05:49:53;;;;;;;5.13;2.05;;;;;;;;;;4978253;28;20105;-22
2021/12/12 05:52:21;;;;;;;5.15;2.42;;;;;;;;;;4977901;28;20023;-21
2021/12/12 05:54:48;;;;;;;6.13;1.80;;;;;;;;;;4978187;28;20023;-23
2021/12/12 05:57:17;;;;;;;4.97;1.83;;;;;;;;;;4961650;28;20022;-22
2021/12/12 05:59:43;;;;;;;4.90;1.90;;;;;;;;;;4978012;28;20027;-22
2021/12/12 06:02:10;;;;;;;6.15;2.00;;;;;;;;;;4960702;28;20173;-22
2021/12/12 06:04:37;;;;;;;5.68;2.15;;;;;;;;;;4977629;28;20038;-22
2021/12/12 06:07:04;;;;;;;4.47;2.25;;;;;;;;;;4977709;28;20069;-22
2021/12/12 06:09:32;;;;;;;5.88;2.35;;;;;;;;;;4977639;28;20058;-25
2021/12/12 06:11:59;;;;;;;5.28;1.60;;;;;;;;;;4977846;28;20030;-22
2021/12/12 06:14:25;;;;;;;4.93;1.92;;;;;;;;;;4977583;28;20481;-23
2021/12/12 06:16:52;;;;;;;7.40;2.63;;;;;;;;;;4977526;28;20037;-21
2021/12/12 06:19:20;;;;;;;3.35;1.63;;;;;;;;;;4977667;28;20122;-22
2021/12/12 06:21:49;;;;;;;3.50;1.63;;;;;;;;;;4977879;28;20027;-22
2021/12/12 06:24:16;;;;;;;5.07;2.25;;;;;;;;;;4977390;28;20113;-22
2021/12/12 06:26:42;;;;;;;5.30;1.98;;;;;;;;;;4977394;28;20030;-22
2021/12/12 06:29:08;;;;;;;4.65;1.55;;;;;;;;;;4977228;28;20046;-22
2021/12/12 06:31:36;;;;;;;5.03;1.70;;;;;;;;;;4977474;28;20030;-24
2021/12/12 06:34:02;;;;;;;6.40;2.70;;;;;;;;;;4977142;28;20026;-22
2021/12/12 06:36:28;;;;;;;5.45;1.45;;;;;;;;;;4977184;28;20097;-21
2021/12/12 06:38:56;;;;;;;7.25;2.42;;;;;;;;;;4977568;28;20071;-22
2021/12/12 06:41:22;;;;;;;3.03;1.65;;;;;;;;;;4976263;28;20420;-23
2021/12/12 06:43:49;;;;;;;8.65;2.28;;;;;;;;;;4977233;28;20035;-23
2021/12/12 06:46:15;;;;;;;4.57;2.25;;;;;;;;;;4977294;28;20023;-22
2021/12/12 06:48:42;;;;;;;5.60;2.72;;;;;;;;;;4977436;28;20057;-22
2021/12/12 06:51:09;;;;;;;5.15;2.15;;;;;;;;;;4977160;28;20042;-22
2021/12/12 06:53:37;;;;;;;4.50;2.55;;;;;;;;;;4977093;28;20110;-22
2021/12/12 06:56:05;;;;;;;5.10;2.17;;;;;;;;;;4976777;28;20043;-22
2021/12/12 06:58:31;;;;;;;2.92;2.38;;;;;;;;;;4976654;28;20042;-22
2021/12/12 07:01:01;;;;;;;3.03;1.75;;;;;;;;;;4976711;28;20094;-22
2021/12/12 07:03:28;;;;;;;3.67;1.77;;;;;;;;;;4976451;28;20453;-22
2021/12/12 07:05:55;;;;;;;4.57;2.35;;;;;;;;;;4976832;28;20034;-22
2021/12/12 07:08:22;;;;;;;2.60;1.73;;;;;;;;;;4976593;28;20030;-24
2021/12/12 07:10:48;;;;;;;3.45;2.00;;;;;;;;;;4977047;28;20108;-22
2021/12/12 07:13:15;;;;;;;6.90;1.58;;;;;;;;;;4976647;28;20027;-22
2021/12/12 07:15:44;;;;;;;6.82;2.22;;;;;;;;;;4976396;28;20097;-23
2021/12/12 07:18:12;;;;;;;3.28;2.33;;;;;;;;;;4976582;28;20135;-22
2021/12/12 07:20:39;;;;;;;2.42;1.50;;;;;;;;;;4976633;28;20023;-22
2021/12/12 07:23:09;;;;;;;6.80;2.55;;;;;;;;;;4976538;28;20055;-22
2021/12/12 07:25:36;;;;;;;3.55;1.30;;;;;;;;;;4976607;28;20057;-22
2021/12/12 07:28:03;;;;;;;2.88;1.45;;;;;;;;;;4976560;28;20026;-22
2021/12/12 07:30:30;;;;;;;4.90;3.92;;;;;;;;;;4976462;28;20370;-22
2021/12/12 07:32:58;;;;;;;4.20;1.67;;;;;;;;;;4975993;28;20038;-22
2021/12/12 07:35:26;;;;;;;3.03;1.65;;;;;;;;;;4976139;28;20062;-22
2021/12/12 07:37:52;;;;;;;5.53;3.22;;;;;;;;;;4976493;28;20031;-22
2021/12/12 07:40:20;;;;;;;3.88;1.80;;;;;;;;;;4975969;28;20046;-22
2021/12/12 07:42:46;;;;;;;3.88;1.67;;;;;;;;;;4958816;28;20031;-22
2021/12/12 07:45:13;;;;;;;3.28;1.48;;;;;;;;;;4975924;28;20530;-21
2021/12/12 07:47:39;;;;;;;3.88;2.05;;;;;;;;;;4976666;28;20513;-22
2021/12/12 07:50:10;;;;;;;2.65;2.42;;;;;;;;;;4975797;28;20030;-22
2021/12/12 07:52:36;;;;;;;4.97;1.65;;;;;;;;;;4975745;28;20389;-22
2021/12/12 07:55:02;;;;;;;4.47;1.50;;;;;;;;;;4976054;28;20328;-22
2021/12/12 07:57:29;;;;;;;6.60;2.33;;;;;;;;;;4975705;28;20061;-23
2021/12/12 07:59:56;;;;;;;4.03;1.60;;;;;;;;;;4975951;28;20037;-22
2021/12/12 08:02:24;;;;;;;4.13;1.63;;;;;;;;;;4975821;28;20066;-22
2021/12/12 08:04:53;;;;;;;6.90;1.73;;;;;;;;;;4975597;28;20046;-22
2021/12/12 08:07:21;;;;;;;2.60;1.40;;;;;;;;;;4975669;28;20034;-22
2021/12/12 08:09:48;;;;;;;4.43;2.05;;;;;;;;;;4975624;28;20027;-22
2021/12/12 08:12:15;;;;;;;4.95;2.00;;;;;;;;;;4958448;28;20450;-22
2021/12/12 08:14:42;;;;;;;3.67;1.58;;;;;;;;;;4976002;28;20027;-22
2021/12/12 08:17:11;;;;;;;6.45;1.63;;;;;;;;;;4975746;28;20031;-21
2021/12/12 08:19:38;;;;;;;3.55;1.70;;;;;;;;;;4975712;28;20041;-22
2021/12/12 08:22:09;;;;;;;4.60;2.20;;;;;;;;;;4975878;28;20031;-22
2021/12/12 08:24:35;;;;;;;;;;;;;;;;;;4975865;28;20106;-23
2021/12/12 08:27:04;;;;;;;3.28;1.90;;;;;;;;;;4975434;28;19913;-22
2021/12/12 08:29:31;;;;;;;3.03;1.52;;;;;;;;;;4975329;28;20043;-22
2021/12/12 08:31:57;;;;;;;5.28;1.80;;;;;;;;;;4958235;28;20034;-22
2021/12/12 08:34:24;;;;;;;3.40;1.85;;;;;;;;;;4975344;28;20050;-22
2021/12/12 08:36:51;;;;;;;3.17;1.65;;;;;;;;;;4975387;28;20481;-21
2021/12/12 08:39:18;;;;;;;2.28;2.00;;;;;;;;;;4975223;28;20058;-22
2021/12/12 08:41:45;;;;;;;4.55;1.80;;;;;;;;;;4975287;28;20469;-23
2021/12/12 08:44:12;;;;;;;4.68;1.80;;;;;;;;;;4975244;28;20450;-22
2021/12/12 08:46:41;;;;;;;3.20;1.70;;;;;;;;;;4975235;28;20023;-22
2021/12/12 08:49:08;;;;;;;3.13;1.88;;;;;;;;;;4975748;28;20042;-22
2021/12/12 08:51:37;;;;;;;4.15;1.48;;;;;;;;;;4975259;28;20035;-23
2021/12/12 08:54:13;;;;;;;3.63;1.77;;;;;;;;;;4975155;28;20039;-22
2021/12/12 08:56:46;;;;;;;3.28;1.88;;;;;;;;;;4975195;28;20069;-21
2021/12/12 08:59:17;;;;;;;7.88;1.45;;;;;;;;;;4975415;28;20045;-22
2021/12/12 09:01:44;;;;;;;2.70;1.85;;;;;;;;;;4975711;28;20050;-22
2021/12/12 09:04:10;;;;;;;3.75;1.60;;;;;;;;;;4977089;28;20541;-22
2021/12/12 09:06:39;;;;;;;3.65;1.67;;;;;;;;;;4978741;28;20050;-23
2021/12/12 09:09:08;;;;;;;4.22;1.75;;;;;;;;;;4978726;28;20027;-22
2021/12/12 09:11:38;;;;;;;3.42;1.10;;;;;;;;;;4978979;28;20077;-23
2021/12/12 09:14:30;;;;;;;6.33;2.47;;;;;;;;;;4978695;28;20089;-26
2021/12/12 09:17:02;;;;;;;3.60;1.50;;;;;;;;;;4973806;28;20038;-22
2021/12/12 09:19:33;;;;;;;2.60;1.33;;;;;;;;;;4978533;28;20106;-22
2021/12/12 09:22:02;;;;;;;5.07;1.60;;;;;;;;;;4978456;28;20054;-22
2021/12/12 09:24:32;;;;;;;2.88;1.40;;;;;;;;;;4978457;28;20093;-22
2021/12/12 09:27:06;;;;;;;6.25;1.30;;;;;;;;;;4978677;28;20023;-22
2021/12/12 09:29:42;;;;;;;2.47;1.30;;;;;;;;;;4961557;28;20042;-22
2021/12/12 09:32:08;;;;;;;2.70;1.20;;;;;;;;;;4978806;28;20134;-22
2021/12/12 09:34:41;;;;;;;3.22;1.55;;;;;;;;;;4978567;28;20027;-23
2021/12/12 09:37:16;;;;;;;3.10;1.30;;;;;;;;;;4978806;28;20038;-22
2021/12/12 09:39:44;;;;;;;3.33;1.92;;;;;;;;;;4978144;28;20031;-22
2021/12/12 09:42:13;;;;;;;2.58;1.20;;;;;;;;;;4978062;28;20027;-22
2021/12/12 09:44:52;;;;;;;4.47;1.45;;;;;;;;;;4978890;28;20462;-22
2021/12/12 09:47:58;;;;;;;2.55;1.60;;;;;;;;;;4978088;28;20027;-23
2021/12/12 09:53:17;;;;;;;5.13;1.65;;;;;;;;;;4978298;28;20093;-22
2021/12/12 09:55:53;;;;;;;1.42;1.05;;;;;;;;;;4961757;28;20332;-22
2021/12/12 09:58:31;;;;;;;2.97;1.23;;;;;;;;;;4978122;28;20031;-21
2021/12/12 10:01:02;;;;;;;2.05;1.25;;;;;;;;;;4978397;28;20023;-22
2021/12/12 10:03:34;;;;;;;7.50;2.10;;;;;;;;;;4977523;28;20047;-22
2021/12/12 10:06:03;;;;;;;4.25;1.30;;;;;;;;;;4977726;28;20053;-22
2021/12/12 10:08:36;;;;;;;3.53;1.65;;;;;;;;;;4977643;28;20177;-22
2021/12/12 10:11:11;;;;;;;2.30;1.50;;;;;;;;;;4977967;28;20070;-23
2021/12/12 10:13:42;;;;;;;1.83;1.35;;;;;;;;;;4977582;28;20034;-22
2021/12/12 10:16:19;;;;;;;2.03;1.10;;;;;;;;;;4977656;28;20355;-23
2021/12/12 10:18:49;;;;;;;1.80;1.50;;;;;;;;;;4977998;28;20031;-23
2021/12/12 10:21:35;;;;;;;3.58;2.05;;;;;;;;;;4977750;28;20342;-23
2021/12/12 10:24:08;;;;;;;3.58;1.20;;;;;;;;;;4912931;28;20089;-22
2021/12/12 10:26:39;;;;;;;3.80;1.50;;;;;;;;;;4977609;28;20403;-22
2021/12/12 10:29:13;;;;;;;2.20;2.00;;;;;;;;;;4977674;28;20085;-22
2021/12/12 10:31:43;;;;;;;3.25;1.58;;;;;;;;;;4977629;28;20480;-23
2021/12/12 10:34:11;;;;;;;2.30;1.35;;;;;;;;;;4977733;28;20161;-23
2021/12/12 10:36:40;;;;;;;3.17;1.48;;;;;;;;;;4977204;28;20027;-23
2021/12/12 10:39:06;;;;;;;2.50;1.20;;;;;;;;;;4977348;28;20093;-23
2021/12/12 10:41:38;;;;;;;2.13;1.25;;;;;;;;;;4977448;28;20019;-22
2021/12/12 10:44:12;;;;;;;1.90;1.48;;;;;;;;;;4976947;28;20042;-22
2021/12/12 10:46:51;;;;;;;2.78;1.40;;;;;;;;;;4960684;28;20114;-23
2021/12/12 10:49:23;;;;;;;1.60;1.02;;;;;;;;;;4977209;28;20039;-22
2021/12/12 10:51:52;;;;;;;3.10;1.35;;;;;;;;;;4976808;28;20106;-21
2021/12/12 10:54:20;;;;;;;2.92;1.60;;;;;;;;;;4977318;28;20057;-22
2021/12/12 10:57:00;;;;;;;2.00;1.15;;;;;;;;;;4976846;28;20362;-23
2021/12/12 10:59:34;;;;;;;2.30;1.38;;;;;;;;;;4977241;28;20035;-22
2021/12/12 11:02:04;;;;;;;1.77;1.20;;;;;;;;;;4976644;28;20041;-22
2021/12/12 11:04:33;;;;;;;2.58;1.42;;;;;;;;;;4976636;28;20054;-22
2021/12/12 11:07:01;;;;;;;3.38;1.52;;;;;;;;;;4959607;28;20066;-22
2021/12/12 11:09:34;;;;;;;2.80;1.15;;;;;;;;;;4977089;28;20035;-22
2021/12/12 11:12:11;;;;;;;3.58;1.20;;;;;;;;;;4976409;28;20569;-22
2021/12/12 11:14:42;;;;;;;2.53;1.33;;;;;;;;;;4976826;28;20085;-22
2021/12/12 11:17:14;;;;;;;1.92;1.30;;;;;;;;;;4976550;28;20046;-21
2021/12/12 11:19:44;;;;;;;3.67;1.65;;;;;;;;;;4976353;28;20244;-22
2021/12/12 11:22:13;;;;;;;1.77;1.10;;;;;;;;;;4976242;28;20455;-22
2021/12/12 11:24:41;;;;;;;3.85;1.52;;;;;;;;;;4976323;28;20067;-22
2021/12/12 11:27:09;;;;;;;1.95;1.45;;;;;;;;;;4975689;28;20023;-23
2021/12/12 11:29:45;;;;;;;1.23;0.95;;;;;;;;;;4976451;28;20023;-21
2021/12/12 11:32:14;;;;;;;3.60;1.45;;;;;;;;;;4976364;28;20124;-22
2021/12/12 11:34:45;;;;;;;2.70;1.40;;;;;;;;;;4976166;28;20035;-22
2021/12/12 11:37:14;;;;;;;1.40;1.13;;;;;;;;;;4976424;28;20070;-22
2021/12/12 11:39:47;;;;;;;4.55;1.40;;;;;;;;;;4976217;28;20039;-22
2021/12/12 11:42:16;;;;;;;2.53;1.40;;;;;;;;;;4975954;28;20034;-21
2021/12/12 11:44:47;;;;;;;2.10;1.00;;;;;;;;;;4976222;28;20023;-22
2021/12/12 11:47:22;;;;;;;1.48;1.08;;;;;;;;;;4976498;28;20023;-23
2021/12/12 11:49:50;;;;;;;2.10;1.60;;;;;;;;;;4976209;28;20030;-22
2021/12/12 11:52:21;;;;;;;3.75;1.20;;;;;;;;;;4976024;28;20058;-23
2021/12/12 11:54:55;;;;;;;2.05;1.48;;;;;;;;;;4976212;28;20470;-22
2021/12/12 11:57:29;;;;;;;2.60;1.15;;;;;;;;;;4976030;28;20097;-22
2021/12/12 11:59:59;;;;;;;1.83;1.17;;;;;;;;;;4975688;28;20046;-22
2021/12/12 12:02:52;;;;;;;3.42;1.83;;;;;;;;;;4975660;28;20019;-22
2021/12/12 12:05:36;;;;;;;2.10;1.02;;;;;;;;;;4971749;28;20081;-23
2021/12/12 12:08:20;;;;;;;2.38;1.63;;;;;;;;;;4975877;28;20085;-22
2021/12/12 12:11:03;;;;;;;1.75;1.60;;;;;;;;;;4975544;28;20478;-22
2021/12/12 12:13:46;;;;;;;2.65;1.20;;;;;;;;;;4975583;28;20050;-21
2021/12/12 12:16:28;;;;;;;2.53;1.38;;;;;;;;;;4975584;28;20030;-23
2021/12/12 12:18:54;;;;;;;;;;;;;;;;;;4976370;28;20466;-23
2021/12/12 12:21:30;;;;;;;2.38;1.38;;;;;;;;;;4975594;28;19906;-22
2021/12/12 12:24:13;;;;;;;1.85;1.35;;;;;;;;;;4975741;28;20039;-22
2021/12/12 12:26:51;;;;;;;1.67;1.35;;;;;;;;;;4975442;28;20027;-22
2021/12/12 12:29:26;;;;;;;2.97;2.03;;;;;;;;;;4975734;28;20098;-21
2021/12/12 12:32:11;;;;;;;3.15;1.38;;;;;;;;;;4975566;28;20031;-23
2021/12/12 12:34:55;;;;;;;1.73;1.00;;;;;;;;;;4975324;28;20034;-21
2021/12/12 12:37:40;;;;;;;1.52;1.40;;;;;;;;;;4976552;28;20038;-22
2021/12/12 12:40:24;;;;;;;2.78;1.55;;;;;;;;;;4979894;28;20042;-22
2021/12/12 12:43:29;;;;;;;1.95;1.20;;;;;;;;;;4979233;28;20405;-22
2021/12/12 12:46:13;;;;;;;3.38;1.40;;;;;;;;;;4961975;28;20068;-21
2021/12/12 12:48:48;;;;;;;1.35;1.05;;;;;;;;;;4979178;28;20402;-22
2021/12/12 12:51:33;;;;;;;1.52;1.05;;;;;;;;;;4979438;28;20027;-24
2021/12/12 12:54:02;;;;;;;1.33;1.20;;;;;;;;;;4979051;28;20370;-22
2021/12/12 12:57:02;;;;;;;2.63;1.23;;;;;;;;;;4979309;28;20037;-22
2021/12/12 12:59:37;;;;;;;1.58;1.25;;;;;;;;;;4927522;28;20089;-22
2021/12/12 13:02:12;;;;;;;4.00;1.10;;;;;;;;;;4979111;28;20058;-23
2021/12/12 13:04:38;;;;;;;2.10;1.33;;;;;;;;;;4978925;28;20047;-22
2021/12/12 13:07:23;;;;;;;3.78;1.60;;;;;;;;;;4978868;28;20031;-22
2021/12/12 13:09:57;;;;;;;1.30;1.00;;;;;;;;;;4978810;28;20023;-24
2021/12/12 13:12:49;;;;;;;2.67;1.35;;;;;;;;;;4978729;28;20121;-22
2021/12/12 13:15:34;;;;;;;1.63;1.05;;;;;;;;;;4942414;28;20038;-22
2021/12/12 13:18:16;;;;;;;1.20;1.10;;;;;;;;;;4978560;28;20058;-22
2021/12/12 13:20:48;;;;;;;1.60;1.42;;;;;;;;;;4961617;28;20038;-22
2021/12/12 13:23:33;;;;;;;1.77;1.17;;;;;;;;;;4978778;28;20073;-22
2021/12/12 13:26:02;;;;;;;3.38;1.08;;;;;;;;;;4978513;28;20054;-21
2021/12/12 13:28:36;;;;;;;2.35;1.60;;;;;;;;;;4978490;28;20533;-22
2021/12/12 13:31:16;;;;;;;1.45;0.98;;;;;;;;;;4978700;28;20439;-22
2021/12/12 13:33:56;;;;;;;2.22;0.90;;;;;;;;;;4978587;28;20031;-22
2021/12/12 13:36:38;;;;;;;1.65;1.00;;;;;;;;;;4978497;28;20181;-22
2021/12/12 13:39:05;;;;;;;;;;;;;;;;;;4961535;28;20030;-23
2021/12/12 13:41:50;;;;;;;1.52;1.20;;;;;;;;;;4978211;28;19910;-22
2021/12/12 13:44:21;;;;;;;1.52;0.95;;;;;;;;;;4978708;28;20026;-22
2021/12/12 13:47:00;;;;;;;1.58;1.10;;;;;;;;;;4978259;28;20027;-22
2021/12/12 13:49:30;;;;;;;1.85;0.93;;;;;;;;;;4977752;28;20030;-21
2021/12/12 13:52:11;;;;;;;2.67;1.85;;;;;;;;;;4978199;28;20133;-22
2021/12/12 13:54:43;;;;;;;1.67;1.27;;;;;;;;;;4978027;28;20089;-22
2021/12/12 13:57:13;;;;;;;1.85;1.10;;;;;;;;;;4978465;28;20038;-21
2021/12/12 13:59:51;;;;;;;2.33;1.10;;;;;;;;;;4978158;28;20367;-22
2021/12/12 14:02:18;;;;;;;2.53;0.95;;;;;;;;;;4978234;28;20094;-22
2021/12/12 14:04:56;;;;;;;1.95;0.98;;;;;;;;;;4977614;28;20411;-22
2021/12/12 14:07:24;;;;;;;3.13;1.33;;;;;;;;;;4977670;28;20034;-21
2021/12/12 14:09:51;;;;;;;1.75;1.10;;;;;;;;;;4977964;28;20034;-22
2021/12/12 14:12:18;;;;;;;2.83;2.08;;;;;;;;;;4977603;28;20027;-22
2021/12/12 14:14:50;;;;;;;1.05;1.00;;;;;;;;;;4977621;28;20041;-22
2021/12/12 14:17:39;;;;;;;2.35;1.33;;;;;;;;;;4977625;28;20459;-22
2021/12/12 14:20:10;;;;;;;2.00;1.45;;;;;;;;;;4965332;28;20042;-22
2021/12/12 14:22:37;;;;;;;1.75;1.65;;;;;;;;;;4977650;28;20027;-22
2021/12/12 14:25:06;;;;;;;0.88;0.68;;;;;;;;;;4977589;28;20031;-22
2021/12/12 14:27:32;;;;;;;1.75;0.95;;;;;;;;;;4977829;28;20023;-22
2021/12/12 14:30:01;;;;;;;1.48;1.10;;;;;;;;;;4977572;28;20090;-21
2021/12/12 14:32:31;;;;;;;1.23;1.00;;;;;;;;;;4977469;28;20038;-21
2021/12/12 14:35:01;;;;;;;3.03;1.63;;;;;;;;;;4977245;28;20034;-22
2021/12/12 14:37:29;;;;;;;1.15;1.05;;;;;;;;;;4977777;28;20030;-25
2021/12/12 14:40:12;;;;;;;5.00;1.90;;;;;;;;;;4977352;28;20088;-22
2021/12/12 14:42:45;;;;;;;2.08;0.90;;;;;;;;;;4977055;28;20019;-22
2021/12/12 14:45:17;;;;;;;3.58;1.98;;;;;;;;;;4977352;28;20034;-23
2021/12/12 14:47:46;;;;;;;1.23;0.95;;;;;;;;;;4976885;28;20030;-23
2021/12/12 14:50:15;;;;;;;1.08;0.98;;;;;;;;;;4977201;28;20125;-22
2021/12/12 14:52:42;;;;;;;1.10;0.98;;;;;;;;;;4976809;28;20123;-22
2021/12/12 14:55:14;;;;;;;2.35;1.48;;;;;;;;;;4976852;28;20038;-22
2021/12/12 14:57:41;;;;;;;1.52;1.15;;;;;;;;;;4976716;28;20061;-22
2021/12/12 15:00:17;;;;;;;2.45;1.17;;;;;;;;;;4976655;28;20062;-22
2021/12/12 15:02:47;;;;;;;1.00;0.90;;;;;;;;;;4975867;28;20033;-22
2021/12/12 15:05:19;;;;;;;2.33;0.98;;;;;;;;;;4977253;28;20375;-22
2021/12/12 15:07:47;;;;;;;1.08;0.90;;;;;;;;;;4976535;28;20462;-22
2021/12/12 15:10:16;;;;;;;1.92;1.10;;;;;;;;;;4976569;28;20484;-23
2021/12/12 15:12:45;;;;;;;1.13;0.90;;;;;;;;;;4976473;28;20023;-22
2021/12/12 15:15:23;;;;;;;2.10;1.33;;;;;;;;;;4976777;28;20027;-22
2021/12/12 15:17:54;;;;;;;1.45;1.15;;;;;;;;;;4959300;28;20042;-23
2021/12/12 15:20:23;;;;;;;1.17;1.08;;;;;;;;;;4976768;28;20454;-22
2021/12/12 15:22:50;;;;;;;2.30;1.42;;;;;;;;;;4976349;28;20027;-22
2021/12/12 15:25:21;;;;;;;1.08;0.90;;;;;;;;;;4976550;28;20039;-22